sensor_id;sensor_type;location;lat;lon;timestamp;pressure;altitude;pressure_sealevel;temperature;humidity
66681;BME280;53575;51.366;12.350;2023-06-19T00:02:14;100011.63;;;19.02;68.32
66681;BME280;53575;51.366;12.350;2023-06-19T00:04:39;100018.84;;;18.98;68.24
66681;BME280;53575;51.366;12.350;2023-06-19T00:07:04;100020.69;;;18.96;68.57
66681;BME280;53575;51.366;12.350;2023-06-19T00:09:30;100020.91;;;18.91;68.95
66681;BME280;53575;51.366;12.350;2023-06-19T00:11:55;100019.69;;;18.98;68.79
66681;BME280;53575;51.366;12.350;2023-06-19T00:14:20;100019.91;;;18.94;69.64
66681;BME280;53575;51.366;12.350;2023-06-19T00:16:46;100019.31;;;18.87;70.16
66681;BME280;53575;51.366;12.350;2023-06-19T00:19:11;100010.78;;;18.81;70.28
66681;BME280;53575;51.366;12.350;2023-06-19T00:21:38;100014.47;;;18.78;70.38
66681;BME280;53575;51.366;12.350;2023-06-19T00:24:04;100011.59;;;18.83;69.89
66681;BME280;53575;51.366;12.350;2023-06-19T00:26:30;100009.66;;;18.86;69.90
66681;BME280;53575;51.366;12.350;2023-06-19T00:28:56;100009.59;;;18.88;69.31
66681;BME280;53575;51.366;12.350;2023-06-19T00:31:21;100008.34;;;18.96;69.50
66681;BME280;53575;51.366;12.350;2023-06-19T00:33:46;100003.91;;;18.97;69.20
66681;BME280;53575;51.366;12.350;2023-06-19T00:36:16;100001.16;;;18.98;68.84
66681;BME280;53575;51.366;12.350;2023-06-19T00:38:45;100001.66;;;19.07;69.76
66681;BME280;53575;51.366;12.350;2023-06-19T00:41:11;99993.84;;;19.04;69.11
66681;BME280;53575;51.366;12.350;2023-06-19T00:43:37;99992.94;;;19.05;69.03
66681;BME280;53575;51.366;12.350;2023-06-19T00:46:03;99999.97;;;19.06;68.75
66681;BME280;53575;51.366;12.350;2023-06-19T00:48:30;99996.31;;;19.08;68.79
66681;BME280;53575;51.366;12.350;2023-06-19T00:50:57;99996.16;;;19.11;69.03
66681;BME280;53575;51.366;12.350;2023-06-19T00:53:23;99993.38;;;19.14;69.78
66681;BME280;53575;51.366;12.350;2023-06-19T00:55:50;99992.06;;;19.23;69.13
66681;BME280;53575;51.366;12.350;2023-06-19T00:58:17;99988.72;;;19.19;68.75
66681;BME280;53575;51.366;12.350;2023-06-19T01:00:42;99984.28;;;19.20;68.32
66681;BME280;53575;51.366;12.350;2023-06-19T01:03:08;99977.34;;;19.17;68.38
66681;BME280;53575;51.366;12.350;2023-06-19T01:05:33;99970.19;;;19.19;68.20
66681;BME280;53575;51.366;12.350;2023-06-19T01:08:00;99963.94;;;19.20;68.11
66681;BME280;53575;51.366;12.350;2023-06-19T01:10:31;99964.81;;;19.21;68.07
66681;BME280;53575;51.366;12.350;2023-06-19T01:13:07;99964.81;;;19.21;68.05
66681;BME280;53575;51.366;12.350;2023-06-19T01:15:35;99968.22;;;19.23;67.86
66681;BME280;53575;51.366;12.350;2023-06-19T01:18:01;99971.41;;;19.31;69.39
66681;BME280;53575;51.366;12.350;2023-06-19T01:20:27;99971.41;;;19.31;67.72
66681;BME280;53575;51.366;12.350;2023-06-19T01:22:53;99964.34;;;19.30;68.51
66681;BME280;53575;51.366;12.350;2023-06-19T01:25:23;99966.25;;;19.28;67.64
66681;BME280;53575;51.366;12.350;2023-06-19T01:27:49;99956.59;;;19.27;67.62
66681;BME280;53575;51.366;12.350;2023-06-19T01:30:15;99961.88;;;19.27;67.40
66681;BME280;53575;51.366;12.350;2023-06-19T01:33:00;99964.34;;;19.30;67.64
66681;BME280;53575;51.366;12.350;2023-06-19T01:35:36;99966.88;;;19.33;68.68
66681;BME280;53575;51.366;12.350;2023-06-19T01:38:02;99953.72;;;19.32;68.33
66681;BME280;53575;51.366;12.350;2023-06-19T01:40:30;99957.13;;;19.34;67.19
66681;BME280;53575;51.366;12.350;2023-06-19T01:42:58;99949.41;;;19.29;68.25
66681;BME280;53575;51.366;12.350;2023-06-19T01:45:27;99946.84;;;19.28;68.08
66681;BME280;53575;51.366;12.350;2023-06-19T01:47:53;99944.25;;;19.26;67.26
66681;BME280;53575;51.366;12.350;2023-06-19T01:50:18;99941.06;;;19.19;67.09
66681;BME280;53575;51.366;12.350;2023-06-19T01:52:44;99940.97;;;19.21;67.25
66681;BME280;53575;51.366;12.350;2023-06-19T01:55:10;99942.91;;;19.17;67.27
66681;BME280;53575;51.366;12.350;2023-06-19T01:57:35;99939.63;;;19.12;67.44
66681;BME280;53575;51.366;12.350;2023-06-19T02:00:02;99937.34;;;19.05;67.50
66681;BME280;53575;51.366;12.350;2023-06-19T02:02:27;99934.19;;;18.96;68.07
66681;BME280;53575;51.366;12.350;2023-06-19T02:04:53;99935.25;;;18.92;68.17
66681;BME280;53575;51.366;12.350;2023-06-19T02:07:18;99932.81;;;18.88;68.60
66681;BME280;53575;51.366;12.350;2023-06-19T02:09:43;99936.41;;;18.87;68.90
66681;BME280;53575;51.366;12.350;2023-06-19T02:12:09;99930.25;;;18.86;68.72
66681;BME280;53575;51.366;12.350;2023-06-19T02:14:34;99932.09;;;18.84;68.85
66681;BME280;53575;51.366;12.350;2023-06-19T02:17:00;99930.59;;;18.79;69.01
66681;BME280;53575;51.366;12.350;2023-06-19T02:19:25;99930.81;;;18.74;68.98
66681;BME280;53575;51.366;12.350;2023-06-19T02:21:50;99930.34;;;18.64;69.41
66681;BME280;53575;51.366;12.350;2023-06-19T02:24:16;99922.47;;;18.63;69.34
66681;BME280;53575;51.366;12.350;2023-06-19T02:26:42;99924.53;;;18.56;69.48
66681;BME280;53575;51.366;12.350;2023-06-19T02:29:09;99930.91;;;18.52;69.80
66681;BME280;53575;51.366;12.350;2023-06-19T02:31:34;99933.75;;;18.47;70.14
66681;BME280;53575;51.366;12.350;2023-06-19T02:34:00;99931.09;;;18.47;70.06
66681;BME280;53575;51.366;12.350;2023-06-19T02:36:25;99932.00;;;18.46;70.15
66681;BME280;53575;51.366;12.350;2023-06-19T02:38:51;99929.38;;;18.46;70.04
66681;BME280;53575;51.366;12.350;2023-06-19T02:41:16;99925.94;;;18.44;71.09
66681;BME280;53575;51.366;12.350;2023-06-19T02:43:44;99926.72;;;18.46;71.41
66681;BME280;53575;51.366;12.350;2023-06-19T02:46:11;99924.06;;;18.46;70.93
66681;BME280;53575;51.366;12.350;2023-06-19T02:48:36;99918.00;;;18.44;70.49
66681;BME280;53575;51.366;12.350;2023-06-19T02:51:02;99918.88;;;18.45;71.00
66681;BME280;53575;51.366;12.350;2023-06-19T02:53:27;99920.69;;;18.43;71.91
66681;BME280;53575;51.366;12.350;2023-06-19T02:55:52;99913.69;;;18.42;70.79
66681;BME280;53575;51.366;12.350;2023-06-19T02:58:18;99906.69;;;18.41;70.83
66681;BME280;53575;51.366;12.350;2023-06-19T03:00:44;99911.00;;;18.43;70.52
66681;BME280;53575;51.366;12.350;2023-06-19T03:03:09;99912.97;;;18.38;70.82
66681;BME280;53575;51.366;12.350;2023-06-19T03:05:35;99916.66;;;18.36;70.99
66681;BME280;53575;51.366;12.350;2023-06-19T03:08:00;99909.81;;;18.30;71.13
66681;BME280;53575;51.366;12.350;2023-06-19T03:10:25;99909.94;;;18.27;71.53
66681;BME280;53575;51.366;12.350;2023-06-19T03:12:51;99918.75;;;18.27;71.12
66681;BME280;53575;51.366;12.350;2023-06-19T03:15:16;99927.34;;;18.33;71.17
66681;BME280;53575;51.366;12.350;2023-06-19T03:17:41;99926.41;;;18.34;70.85
66681;BME280;53575;51.366;12.350;2023-06-19T03:20:07;99931.78;;;18.32;71.09
66681;BME280;53575;51.366;12.350;2023-06-19T03:22:36;99924.72;;;18.33;70.93
66681;BME280;53575;51.366;12.350;2023-06-19T03:25:02;99925.44;;;18.36;71.11
66681;BME280;53575;51.366;12.350;2023-06-19T03:27:28;99921.63;;;18.42;71.22
66681;BME280;53575;51.366;12.350;2023-06-19T03:29:54;99914.56;;;18.42;72.00
66681;BME280;53575;51.366;12.350;2023-06-19T03:32:19;99919.31;;;18.55;71.45
66681;BME280;53575;51.366;12.350;2023-06-19T03:34:46;99913.81;;;18.59;71.39
66681;BME280;53575;51.366;12.350;2023-06-19T03:37:11;99914.81;;;18.57;71.00
66681;BME280;53575;51.366;12.350;2023-06-19T03:39:37;99914.72;;;18.58;70.83
66681;BME280;53575;51.366;12.350;2023-06-19T03:42:03;99909.78;;;18.71;71.81
66681;BME280;53575;51.366;12.350;2023-06-19T03:44:28;99915.06;;;18.71;71.27
66681;BME280;53575;51.366;12.350;2023-06-19T03:46:54;99923.00;;;18.71;70.97
66681;BME280;53575;51.366;12.350;2023-06-19T03:49:19;99928.88;;;18.78;71.23
66681;BME280;53575;51.366;12.350;2023-06-19T03:51:45;99920.72;;;18.82;70.09
66681;BME280;53575;51.366;12.350;2023-06-19T03:54:10;99919.72;;;18.85;69.80
66681;BME280;53575;51.366;12.350;2023-06-19T03:56:36;99922.16;;;18.89;70.04
66681;BME280;53575;51.366;12.350;2023-06-19T03:59:01;99914.84;;;18.94;69.86
66681;BME280;53575;51.366;12.350;2023-06-19T04:01:26;99918.72;;;19.06;69.73
66681;BME280;53575;51.366;12.350;2023-06-19T04:03:52;99919.78;;;19.02;69.69
66681;BME280;53575;51.366;12.350;2023-06-19T04:06:17;99921.28;;;19.08;69.67
66681;BME280;53575;51.366;12.350;2023-06-19T04:08:43;99920.22;;;19.12;70.21
66681;BME280;53575;51.366;12.350;2023-06-19T04:11:08;99921.28;;;19.08;70.30
66681;BME280;53575;51.366;12.350;2023-06-19T04:13:34;99928.31;;;19.09;69.52
66681;BME280;53575;51.366;12.350;2023-06-19T04:15:59;99938.78;;;19.12;70.11
66681;BME280;53575;51.366;12.350;2023-06-19T04:18:24;99934.09;;;19.17;70.37
66681;BME280;53575;51.366;12.350;2023-06-19T04:20:50;99926.91;;;19.19;69.74
66681;BME280;53575;51.366;12.350;2023-06-19T04:23:15;99933.78;;;19.23;69.70
66681;BME280;53575;51.366;12.350;2023-06-19T04:25:41;99931.84;;;19.27;69.28
66681;BME280;53575;51.366;12.350;2023-06-19T04:28:06;99940.59;;;19.29;69.28
66681;BME280;53575;51.366;12.350;2023-06-19T04:30:31;99934.13;;;19.34;70.01
66681;BME280;53575;51.366;12.350;2023-06-19T04:32:58;99936.50;;;19.40;68.89
66681;BME280;53575;51.366;12.350;2023-06-19T04:35:24;99937.13;;;19.45;69.51
66681;BME280;53575;51.366;12.350;2023-06-19T04:37:49;99934.47;;;19.45;69.79
66681;BME280;53575;51.366;12.350;2023-06-19T04:40:15;99930.69;;;19.51;69.86
66681;BME280;53575;51.366;12.350;2023-06-19T04:42:40;99933.09;;;19.56;69.37
66681;BME280;53575;51.366;12.350;2023-06-19T04:45:06;99926.59;;;19.63;69.43
66681;BME280;53575;51.366;12.350;2023-06-19T04:47:34;99933.78;;;19.78;69.41
66681;BME280;53575;51.366;12.350;2023-06-19T04:50:00;99933.72;;;19.97;68.45
66681;BME280;53575;51.366;12.350;2023-06-19T04:52:25;99925.81;;;20.13;68.87
66681;BME280;53575;51.366;12.350;2023-06-19T04:54:51;99928.94;;;20.21;69.25
66681;BME280;53575;51.366;12.350;2023-06-19T04:57:16;99930.09;;;20.33;68.68
66681;BME280;53575;51.366;12.350;2023-06-19T04:59:44;99925.22;;;20.41;69.45
66681;BME280;53575;51.366;12.350;2023-06-19T05:02:10;99929.94;;;20.53;68.13
66681;BME280;53575;51.366;12.350;2023-06-19T05:04:36;99939.50;;;20.56;68.02
66681;BME280;53575;51.366;12.350;2023-06-19T05:07:02;99940.84;;;20.64;67.31
66681;BME280;53575;51.366;12.350;2023-06-19T05:09:28;99941.59;;;20.66;67.60
66681;BME280;53575;51.366;12.350;2023-06-19T05:11:53;99940.22;;;20.59;67.48
66681;BME280;53575;51.366;12.350;2023-06-19T05:14:19;99947.72;;;20.51;68.18
66681;BME280;53575;51.366;12.350;2023-06-19T05:16:44;99950.84;;;20.59;68.58
66681;BME280;53575;51.366;12.350;2023-06-19T05:19:10;99949.91;;;20.43;69.47
66681;BME280;53575;51.366;12.350;2023-06-19T05:21:35;99942.53;;;20.48;69.92
66681;BME280;53575;51.366;12.350;2023-06-19T05:24:01;99945.16;;;20.32;70.67
66681;BME280;53575;51.366;12.350;2023-06-19T05:26:26;99938.13;;;20.31;70.78
66681;BME280;53575;51.366;12.350;2023-06-19T05:28:52;99939.53;;;20.21;71.02
66681;BME280;53575;51.366;12.350;2023-06-19T05:31:17;99944.84;;;20.21;71.65
66681;BME280;53575;51.366;12.350;2023-06-19T05:33:45;99946.75;;;20.19;70.14
66681;BME280;53575;51.366;12.350;2023-06-19T05:36:11;99946.09;;;20.14;69.73
66681;BME280;53575;51.366;12.350;2023-06-19T05:38:36;99942.59;;;20.13;69.33
66681;BME280;53575;51.366;12.350;2023-06-19T05:41:02;99942.66;;;20.29;68.50
66681;BME280;53575;51.366;12.350;2023-06-19T05:43:28;99947.25;;;20.26;68.44
66681;BME280;53575;51.366;12.350;2023-06-19T05:45:54;99948.59;;;20.17;68.54
66681;BME280;53575;51.366;12.350;2023-06-19T05:48:24;99948.22;;;20.07;68.33
66681;BME280;53575;51.366;12.350;2023-06-19T05:50:50;99954.22;;;20.28;68.35
66681;BME280;53575;51.366;12.350;2023-06-19T05:53:15;99950.25;;;20.19;69.56
66681;BME280;53575;51.366;12.350;2023-06-19T05:55:41;99952.97;;;20.18;69.94
66681;BME280;53575;51.366;12.350;2023-06-19T05:58:06;99959.06;;;20.20;70.88
66681;BME280;53575;51.366;12.350;2023-06-19T06:00:32;99965.47;;;20.16;71.46
66681;BME280;53575;51.366;12.350;2023-06-19T06:02:57;99966.72;;;20.26;70.85
66681;BME280;53575;51.366;12.350;2023-06-19T06:05:26;99965.53;;;20.32;71.51
66681;BME280;53575;51.366;12.350;2023-06-19T06:07:53;99965.44;;;20.33;71.06
66681;BME280;53575;51.366;12.350;2023-06-19T06:10:20;99966.78;;;20.25;70.60
66681;BME280;53575;51.366;12.350;2023-06-19T06:12:46;99968.81;;;20.19;70.70
66681;BME280;53575;51.366;12.350;2023-06-19T06:15:11;99963.50;;;20.19;71.25
66681;BME280;53575;51.366;12.350;2023-06-19T06:17:37;99973.78;;;20.26;72.12
66681;BME280;53575;51.366;12.350;2023-06-19T06:20:02;99977.72;;;20.18;73.69
66681;BME280;53575;51.366;12.350;2023-06-19T06:22:32;99983.25;;;20.14;73.34
66681;BME280;53575;51.366;12.350;2023-06-19T06:24:58;99984.47;;;20.07;76.15
66681;BME280;53575;51.366;12.350;2023-06-19T06:27:23;99977.72;;;20.01;74.75
66681;BME280;53575;51.366;12.350;2023-06-19T06:29:49;99973.78;;;19.91;76.34
66681;BME280;53575;51.366;12.350;2023-06-19T06:32:14;99977.47;;;19.88;76.69
66681;BME280;53575;51.366;12.350;2023-06-19T06:34:40;99979.00;;;19.75;77.86
66681;BME280;53575;51.366;12.350;2023-06-19T06:37:05;99972.28;;;19.68;79.59
66681;BME280;53575;51.366;12.350;2023-06-19T06:39:31;99981.88;;;19.70;79.46
66681;BME280;53575;51.366;12.350;2023-06-19T06:41:56;99982.19;;;19.64;81.36
66681;BME280;53575;51.366;12.350;2023-06-19T06:44:22;99987.69;;;19.60;82.08
66681;BME280;53575;51.366;12.350;2023-06-19T06:46:47;100001.06;;;19.57;81.46
66681;BME280;53575;51.366;12.350;2023-06-19T06:49:12;100007.22;;;19.57;81.44
66681;BME280;53575;51.366;12.350;2023-06-19T06:51:38;100008.16;;;19.56;80.64
66681;BME280;53575;51.366;12.350;2023-06-19T06:54:04;100016.44;;;19.50;81.44
66681;BME280;53575;51.366;12.350;2023-06-19T06:56:29;100014.91;;;19.44;82.54
66681;BME280;53575;51.366;12.350;2023-06-19T06:58:55;100019.81;;;19.35;83.22
66681;BME280;53575;51.366;12.350;2023-06-19T07:01:20;100028.47;;;19.19;84.85
66681;BME280;53575;51.366;12.350;2023-06-19T07:03:46;100017.66;;;19.24;85.70
66681;BME280;53575;51.366;12.350;2023-06-19T07:06:11;100020.72;;;19.15;88.17
66681;BME280;53575;51.366;12.350;2023-06-19T07:08:37;100020.16;;;19.27;87.10
66681;BME280;53575;51.366;12.350;2023-06-19T07:11:03;100012.41;;;19.41;87.60
66681;BME280;53575;51.366;12.350;2023-06-19T07:13:29;100009.97;;;19.56;87.46
66681;BME280;53575;51.366;12.350;2023-06-19T07:15:54;100013.84;;;19.67;87.11
66681;BME280;53575;51.366;12.350;2023-06-19T07:18:19;100016.94;;;19.94;85.21
66681;BME280;53575;51.366;12.350;2023-06-19T07:20:45;100013.13;;;20.00;85.58
66681;BME280;53575;51.366;12.350;2023-06-19T07:23:10;100020.72;;;20.08;84.72
66681;BME280;53575;51.366;12.350;2023-06-19T07:25:36;100025.16;;;20.07;85.15
66681;BME280;53575;51.366;12.350;2023-06-19T07:28:02;100023.59;;;20.20;84.83
66681;BME280;53575;51.366;12.350;2023-06-19T07:30:30;100020.63;;;20.27;84.50
66681;BME280;53575;51.366;12.350;2023-06-19T07:32:55;100012.03;;;20.39;83.27
66681;BME280;53575;51.366;12.350;2023-06-19T07:35:20;100010.00;;;20.44;81.34
66681;BME280;53575;51.366;12.350;2023-06-19T07:37:46;100016.66;;;20.53;81.97
66681;BME280;53575;51.366;12.350;2023-06-19T07:40:11;100009.34;;;20.58;81.54
66681;BME280;53575;51.366;12.350;2023-06-19T07:42:37;100014.84;;;20.71;80.51
66681;BME280;53575;51.366;12.350;2023-06-19T07:45:03;100017.69;;;20.83;79.91
66681;BME280;53575;51.366;12.350;2023-06-19T07:47:28;100027.53;;;20.99;78.49
66681;BME280;53575;51.366;12.350;2023-06-19T07:49:54;100022.03;;;21.17;77.37
66681;BME280;53575;51.366;12.350;2023-06-19T07:52:19;100023.84;;;21.34;76.48
66681;BME280;53575;51.366;12.350;2023-06-19T07:54:56;100010.28;;;21.55;74.81
66681;BME280;53575;51.366;12.350;2023-06-19T07:57:23;100009.06;;;21.76;74.60
66681;BME280;53575;51.366;12.350;2023-06-19T07:59:49;100016.34;;;21.88;73.97
66681;BME280;53575;51.366;12.350;2023-06-19T08:02:15;100013.50;;;21.92;72.69
66681;BME280;53575;51.366;12.350;2023-06-19T08:04:41;100014.41;;;22.06;71.99
66681;BME280;53575;51.366;12.350;2023-06-19T08:07:07;100015.72;;;22.15;72.05
66681;BME280;53575;51.366;12.350;2023-06-19T08:09:32;100017.63;;;22.27;72.38
66681;BME280;53575;51.366;12.350;2023-06-19T08:11:58;100019.84;;;22.35;72.27
66681;BME280;53575;51.366;12.350;2023-06-19T08:14:23;100010.72;;;22.39;72.53
66681;BME280;53575;51.366;12.350;2023-06-19T08:16:49;100010.25;;;22.47;72.03
66681;BME280;53575;51.366;12.350;2023-06-19T08:19:14;100002.88;;;22.66;71.77
66681;BME280;53575;51.366;12.350;2023-06-19T08:21:39;99999.75;;;22.88;70.68
66681;BME280;53575;51.366;12.350;2023-06-19T08:24:05;99999.84;;;23.15;68.79
66681;BME280;53575;51.366;12.350;2023-06-19T08:26:31;99994.28;;;23.47;67.02
66681;BME280;53575;51.366;12.350;2023-06-19T08:28:56;99995.91;;;23.76;65.76
66681;BME280;53575;51.366;12.350;2023-06-19T08:31:22;100004.34;;;23.97;64.24
66681;BME280;53575;51.366;12.350;2023-06-19T08:33:53;99998.47;;;24.05;63.69
66681;BME280;53575;51.366;12.350;2023-06-19T08:36:20;100003.81;;;24.05;62.39
66681;BME280;53575;51.366;12.350;2023-06-19T08:38:47;100004.69;;;24.18;61.16
66681;BME280;53575;51.366;12.350;2023-06-19T08:41:16;100001.50;;;24.26;61.11
66681;BME280;53575;51.366;12.350;2023-06-19T08:43:44;100013.28;;;24.36;61.35
66681;BME280;53575;51.366;12.350;2023-06-19T08:46:17;100012.38;;;24.50;62.22
66681;BME280;53575;51.366;12.350;2023-06-19T08:48:44;100016.09;;;24.60;57.54
66681;BME280;53575;51.366;12.350;2023-06-19T08:51:11;100004.47;;;24.74;58.87
66681;BME280;53575;51.366;12.350;2023-06-19T08:56:11;100010.97;;;25.08;57.15
66681;BME280;53575;51.366;12.350;2023-06-19T08:58:37;100006.47;;;25.21;57.93
66681;BME280;53575;51.366;12.350;2023-06-19T09:01:03;99999.78;;;25.40;53.02
66681;BME280;53575;51.366;12.350;2023-06-19T09:03:29;100000.22;;;25.46;54.24
66681;BME280;53575;51.366;12.350;2023-06-19T09:05:54;99994.34;;;25.65;52.31
66681;BME280;53575;51.366;12.350;2023-06-19T09:08:21;99999.16;;;25.73;52.60
66681;BME280;53575;51.366;12.350;2023-06-19T09:11:01;99994.84;;;25.70;51.14
66681;BME280;53575;51.366;12.350;2023-06-19T09:13:27;99996.66;;;25.83;50.12
66681;BME280;53575;51.366;12.350;2023-06-19T09:16:04;99990.63;;;25.92;48.36
66681;BME280;53575;51.366;12.350;2023-06-19T09:18:31;99988.22;;;26.00;48.25
66681;BME280;53575;51.366;12.350;2023-06-19T09:20:57;99987.72;;;26.06;48.80
66681;BME280;53575;51.366;12.350;2023-06-19T09:23:23;99982.56;;;26.16;49.06
66681;BME280;53575;51.366;12.350;2023-06-19T09:25:51;99977.88;;;26.42;48.15
66681;BME280;53575;51.366;12.350;2023-06-19T09:33:18;99973.22;;;26.44;44.10
66681;BME280;53575;51.366;12.350;2023-06-19T09:35:44;99969.75;;;26.55;44.26
66681;BME280;53575;51.366;12.350;2023-06-19T09:38:10;99969.06;;;26.75;43.68
66681;BME280;53575;51.366;12.350;2023-06-19T09:40:37;99968.44;;;26.71;41.85
66681;BME280;53575;51.366;12.350;2023-06-19T09:43:04;99965.78;;;26.71;42.58
66681;BME280;53575;51.366;12.350;2023-06-19T09:45:30;99971.38;;;26.80;42.14
66681;BME280;53575;51.366;12.350;2023-06-19T09:47:57;99966.72;;;26.93;41.90
66681;BME280;53575;51.366;12.350;2023-06-19T09:50:27;99974.91;;;27.03;41.02
66681;BME280;53575;51.366;12.350;2023-06-19T09:52:52;99970.66;;;27.11;41.74
66681;BME280;53575;51.366;12.350;2023-06-19T09:55:22;99978.56;;;27.13;43.08
66681;BME280;53575;51.366;12.350;2023-06-19T09:57:50;99971.84;;;27.07;42.36
66681;BME280;53575;51.366;12.350;2023-06-19T10:00:17;99981.84;;;27.16;41.63
66681;BME280;53575;51.366;12.350;2023-06-19T10:02:48;99979.44;;;27.13;41.91
66681;BME280;53575;51.366;12.350;2023-06-19T10:05:14;99981.97;;;27.37;42.24
66681;BME280;53575;51.366;12.350;2023-06-19T10:07:44;99974.88;;;27.48;41.89
66681;BME280;53575;51.366;12.350;2023-06-19T10:10:22;99974.44;;;27.75;41.63
66681;BME280;53575;51.366;12.350;2023-06-19T10:12:48;99969.75;;;27.88;41.42
66681;BME280;53575;51.366;12.350;2023-06-19T10:15:19;99960.84;;;28.40;40.57
66681;BME280;53575;51.366;12.350;2023-06-19T10:17:49;99959.84;;;28.72;39.75
66681;BME280;53575;51.366;12.350;2023-06-19T10:20:27;99961.56;;;28.73;38.91
66681;BME280;53575;51.366;12.350;2023-06-19T10:23:19;99961.78;;;28.60;39.54
66681;BME280;53575;51.366;12.350;2023-06-19T10:28:24;99957.84;;;28.64;40.05
66681;BME280;53575;51.366;12.350;2023-06-19T10:31:00;99958.31;;;28.49;39.65
66681;BME280;53575;51.366;12.350;2023-06-19T10:33:28;99953.28;;;28.55;40.22
66681;BME280;53575;51.366;12.350;2023-06-19T10:35:54;99951.69;;;28.83;39.62
66681;BME280;53575;51.366;12.350;2023-06-19T10:38:20;99952.97;;;29.10;39.69
66681;BME280;53575;51.366;12.350;2023-06-19T10:40:46;99953.16;;;29.28;38.75
66681;BME280;53575;51.366;12.350;2023-06-19T10:43:13;99951.72;;;29.24;38.16
66681;BME280;53575;51.366;12.350;2023-06-19T10:45:44;99958.97;;;29.23;38.47
66681;BME280;53575;51.366;12.350;2023-06-19T10:48:09;99949.75;;;29.26;37.93
66681;BME280;53575;51.366;12.350;2023-06-19T10:50:37;99941.44;;;29.48;37.69
66681;BME280;53575;51.366;12.350;2023-06-19T10:53:03;99940.88;;;29.54;37.68
66681;BME280;53575;51.366;12.350;2023-06-19T10:55:29;99932.53;;;29.67;38.39
66681;BME280;53575;51.366;12.350;2023-06-19T10:57:55;99937.78;;;29.59;36.78
66681;BME280;53575;51.366;12.350;2023-06-19T11:00:25;99939.16;;;29.53;37.15
66681;BME280;53575;51.366;12.350;2023-06-19T11:02:51;99946.72;;;29.59;37.03
66681;BME280;53575;51.366;12.350;2023-06-19T11:05:20;99946.16;;;29.66;37.32
66681;BME280;53575;51.366;12.350;2023-06-19T11:07:51;99942.03;;;29.71;36.91
66681;BME280;53575;51.366;12.350;2023-06-19T11:10:22;99939.22;;;29.92;36.58
66681;BME280;53575;51.366;12.350;2023-06-19T11:12:48;99936.53;;;29.92;36.55
66681;BME280;53575;51.366;12.350;2023-06-19T11:15:14;99934.25;;;29.97;36.90
66681;BME280;53575;51.366;12.350;2023-06-19T11:17:40;99942.47;;;29.86;37.06
66681;BME280;53575;51.366;12.350;2023-06-19T11:20:10;99943.59;;;29.83;36.76
66681;BME280;53575;51.366;12.350;2023-06-19T11:22:37;99942.47;;;29.76;37.16
66681;BME280;53575;51.366;12.350;2023-06-19T11:25:04;99943.59;;;29.74;36.38
66681;BME280;53575;51.366;12.350;2023-06-19T11:27:30;99938.34;;;29.82;36.66
66681;BME280;53575;51.366;12.350;2023-06-19T11:29:56;99946.44;;;29.82;36.79
66681;BME280;53575;51.366;12.350;2023-06-19T11:32:34;99956.50;;;29.90;36.38
66681;BME280;53575;51.366;12.350;2023-06-19T11:35:08;99951.81;;;29.72;36.23
66681;BME280;53575;51.366;12.350;2023-06-19T11:37:34;99958.34;;;29.60;35.69
66681;BME280;53575;51.366;12.350;2023-06-19T11:40:00;99956.94;;;29.66;36.11
66681;BME280;53575;51.366;12.350;2023-06-19T11:42:26;99954.38;;;29.93;36.22
66681;BME280;53575;51.366;12.350;2023-06-19T11:45:01;99947.84;;;30.15;36.07
66681;BME280;53575;51.366;12.350;2023-06-19T11:47:32;99957.63;;;30.06;35.74
66681;BME280;53575;51.366;12.350;2023-06-19T11:49:58;99963.88;;;29.87;35.95
66681;BME280;53575;51.366;12.350;2023-06-19T11:52:24;99965.94;;;29.45;36.43
66681;BME280;53575;51.366;12.350;2023-06-19T11:54:49;99960.94;;;29.21;37.36
66681;BME280;53575;51.366;12.350;2023-06-19T11:57:14;99961.81;;;29.31;37.75
66681;BME280;53575;51.366;12.350;2023-06-19T11:59:41;99960.41;;;29.56;37.30
66681;BME280;53575;51.366;12.350;2023-06-19T12:02:07;99954.50;;;29.72;37.51
66681;BME280;53575;51.366;12.350;2023-06-19T12:04:33;99948.56;;;30.07;36.70
66681;BME280;53575;51.366;12.350;2023-06-19T12:06:59;99954.50;;;30.30;36.87
66681;BME280;53575;51.366;12.350;2023-06-19T12:09:25;99947.22;;;30.41;37.58
66681;BME280;53575;51.366;12.350;2023-06-19T12:11:51;99946.94;;;30.53;36.28
66681;BME280;53575;51.366;12.350;2023-06-19T12:14:16;99945.00;;;30.83;35.17
66681;BME280;53575;51.366;12.350;2023-06-19T12:16:43;99948.66;;;30.92;35.08
66681;BME280;53575;51.366;12.350;2023-06-19T12:19:10;99949.56;;;30.73;35.43
66681;BME280;53575;51.366;12.350;2023-06-19T12:21:36;99939.91;;;30.70;35.31
66681;BME280;53575;51.366;12.350;2023-06-19T12:24:01;99939.19;;;30.78;35.17
66681;BME280;53575;51.366;12.350;2023-06-19T12:26:27;99945.31;;;31.07;34.97
66681;BME280;53575;51.366;12.350;2023-06-19T12:28:52;99945.22;;;30.99;34.63
66681;BME280;53575;51.366;12.350;2023-06-19T12:31:18;99935.47;;;30.89;34.45
66681;BME280;53575;51.366;12.350;2023-06-19T12:33:44;99935.91;;;30.84;34.21
66681;BME280;53575;51.366;12.350;2023-06-19T12:36:14;99942.44;;;30.91;34.49
66681;BME280;53575;51.366;12.350;2023-06-19T12:38:40;99944.41;;;31.17;34.03
66681;BME280;53575;51.366;12.350;2023-06-19T12:41:06;99933.84;;;31.23;33.59
66681;BME280;53575;51.366;12.350;2023-06-19T12:43:31;99922.03;;;31.70;33.54
66681;BME280;53575;51.366;12.350;2023-06-19T12:45:57;99925.13;;;31.93;32.73
66681;BME280;53575;51.366;12.350;2023-06-19T12:48:27;99920.81;;;31.64;32.57
66681;BME280;53575;51.366;12.350;2023-06-19T12:50:53;99922.81;;;31.44;32.93
66681;BME280;53575;51.366;12.350;2023-06-19T12:53:19;99913.38;;;31.66;32.86
66681;BME280;53575;51.366;12.350;2023-06-19T12:55:44;99911.31;;;31.96;32.24